sensor_id;sensor_type;location;lat;lon;timestamp;P1;durP1;ratioP1;P2;durP2;ratioP2
45694;SDS011;31408;45.468;9.124;2022-08-05T00:01:23;7.55;;;2.95;;
45694;SDS011;31408;45.468;9.124;2022-08-05T00:03:49;7.18;;;2.83;;
45694;SDS011;31408;45.468;9.124;2022-08-05T00:06:15;8.75;;;3.15;;
45694;SDS011;31408;45.468;9.124;2022-08-05T00:08:41;9.00;;;3.42;;
45694;SDS011;31408;45.468;9.124;2022-08-05T00:11:11;5.20;;;3.17;;
45694;SDS011;31408;45.468;9.124;2022-08-05T00:13:38;6.10;;;3.58;;
45694;SDS011;31408;45.468;9.124;2022-08-05T00:16:05;8.20;;;3.30;;
45694;SDS011;31408;45.468;9.124;2022-08-05T00:18:35;11.20;;;3.80;;
45694;SDS011;31408;45.468;9.124;2022-08-05T00:21:01;9.68;;;3.67;;
45694;SDS011;31408;45.468;9.124;2022-08-05T00:23:27;10.63;;;3.65;;
45694;SDS011;31408;45.468;9.124;2022-08-05T00:25:52;13.95;;;4.50;;
45694;SDS011;31408;45.468;9.124;2022-08-05T00:28:17;5.28;;;3.22;;
45694;SDS011;31408;45.468;9.124;2022-08-05T00:30:43;7.35;;;3.38;;
45694;SDS011;31408;45.468;9.124;2022-08-05T00:33:08;5.80;;;3.35;;
45694;SDS011;31408;45.468;9.124;2022-08-05T00:35:34;8.07;;;3.50;;
45694;SDS011;31408;45.468;9.124;2022-08-05T00:38:00;6.53;;;3.72;;
45694;SDS011;31408;45.468;9.124;2022-08-05T00:40:26;11.15;;;4.45;;
45694;SDS011;31408;45.468;9.124;2022-08-05T00:42:52;14.27;;;4.63;;
45694;SDS011;31408;45.468;9.124;2022-08-05T00:45:17;8.88;;;4.10;;
45694;SDS011;31408;45.468;9.124;2022-08-05T00:47:43;10.90;;;4.18;;
45694;SDS011;31408;45.468;9.124;2022-08-05T00:50:08;9.70;;;3.75;;
45694;SDS011;31408;45.468;9.124;2022-08-05T00:52:35;10.60;;;4.20;;
45694;SDS011;31408;45.468;9.124;2022-08-05T00:55:00;5.57;;;3.53;;
45694;SDS011;31408;45.468;9.124;2022-08-05T00:57:26;9.48;;;4.20;;
45694;SDS011;31408;45.468;9.124;2022-08-05T00:59:51;9.68;;;3.60;;
45694;SDS011;31408;45.468;9.124;2022-08-05T01:02:17;7.38;;;3.83;;
45694;SDS011;31408;45.468;9.124;2022-08-05T01:04:42;13.75;;;3.80;;
45694;SDS011;31408;45.468;9.124;2022-08-05T01:07:08;8.88;;;3.90;;
45694;SDS011;31408;45.468;9.124;2022-08-05T01:09:33;9.30;;;4.60;;
45694;SDS011;31408;45.468;9.124;2022-08-05T01:12:01;15.48;;;6.80;;
45694;SDS011;31408;45.468;9.124;2022-08-05T01:14:32;10.23;;;4.65;;
45694;SDS011;31408;45.468;9.124;2022-08-05T01:17:09;10.77;;;5.00;;
45694;SDS011;31408;45.468;9.124;2022-08-05T01:19:42;8.00;;;3.95;;
45694;SDS011;31408;45.468;9.124;2022-08-05T01:27:28;9.20;;;3.67;;
45694;SDS011;31408;45.468;9.124;2022-08-05T01:30:02;4.50;;;2.63;;
45694;SDS011;31408;45.468;9.124;2022-08-05T01:32:30;5.72;;;2.95;;
45694;SDS011;31408;45.468;9.124;2022-08-05T01:34:57;4.80;;;2.80;;
45694;SDS011;31408;45.468;9.124;2022-08-05T01:37:41;4.75;;;2.60;;
45694;SDS011;31408;45.468;9.124;2022-08-05T01:40:09;13.45;;;5.53;;
45694;SDS011;31408;45.468;9.124;2022-08-05T01:42:35;9.35;;;5.05;;
45694;SDS011;31408;45.468;9.124;2022-08-05T01:45:01;6.55;;;3.50;;
45694;SDS011;31408;45.468;9.124;2022-08-05T01:47:28;8.40;;;4.30;;
45694;SDS011;31408;45.468;9.124;2022-08-05T01:49:55;6.53;;;3.90;;
45694;SDS011;31408;45.468;9.124;2022-08-05T01:52:22;3.70;;;2.63;;
45694;SDS011;31408;45.468;9.124;2022-08-05T01:54:48;7.50;;;2.85;;
45694;SDS011;31408;45.468;9.124;2022-08-05T01:57:17;5.53;;;2.38;;
45694;SDS011;31408;45.468;9.124;2022-08-05T01:59:45;4.97;;;2.95;;
45694;SDS011;31408;45.468;9.124;2022-08-05T02:02:12;3.40;;;2.40;;
45694;SDS011;31408;45.468;9.124;2022-08-05T02:04:38;7.32;;;2.65;;
45694;SDS011;31408;45.468;9.124;2022-08-05T02:07:04;5.82;;;3.10;;
45694;SDS011;31408;45.468;9.124;2022-08-05T02:09:30;7.18;;;3.30;;
45694;SDS011;31408;45.468;9.124;2022-08-05T02:11:59;3.78;;;2.55;;
45694;SDS011;31408;45.468;9.124;2022-08-05T02:14:27;4.13;;;3.00;;
45694;SDS011;31408;45.468;9.124;2022-08-05T02:16:58;3.72;;;2.65;;
45694;SDS011;31408;45.468;9.124;2022-08-05T02:24:45;7.03;;;2.55;;
45694;SDS011;31408;45.468;9.124;2022-08-05T02:27:14;5.50;;;2.80;;
45694;SDS011;31408;45.468;9.124;2022-08-05T02:29:40;4.90;;;2.47;;
45694;SDS011;31408;45.468;9.124;2022-08-05T02:32:07;12.45;;;3.05;;
45694;SDS011;31408;45.468;9.124;2022-08-05T02:34:34;8.55;;;4.13;;
45694;SDS011;31408;45.468;9.124;2022-08-05T02:37:07;5.32;;;2.35;;
45694;SDS011;31408;45.468;9.124;2022-08-05T02:39:34;10.30;;;3.95;;
45694;SDS011;31408;45.468;9.124;2022-08-05T02:42:01;7.93;;;3.10;;
45694;SDS011;31408;45.468;9.124;2022-08-05T02:44:27;4.70;;;2.53;;
45694;SDS011;31408;45.468;9.124;2022-08-05T02:46:54;3.25;;;2.22;;
45694;SDS011;31408;45.468;9.124;2022-08-05T02:49:20;4.13;;;2.50;;
45694;SDS011;31408;45.468;9.124;2022-08-05T02:51:47;5.32;;;3.35;;
45694;SDS011;31408;45.468;9.124;2022-08-05T02:54:13;4.72;;;2.58;;
45694;SDS011;31408;45.468;9.124;2022-08-05T02:56:40;6.38;;;2.90;;
45694;SDS011;31408;45.468;9.124;2022-08-05T02:59:07;4.30;;;2.88;;
45694;SDS011;31408;45.468;9.124;2022-08-05T03:01:35;5.60;;;2.65;;
45694;SDS011;31408;45.468;9.124;2022-08-05T03:04:04;7.25;;;2.75;;
45694;SDS011;31408;45.468;9.124;2022-08-05T03:06:32;3.50;;;2.90;;
45694;SDS011;31408;45.468;9.124;2022-08-05T03:08:58;4.63;;;1.98;;
45694;SDS011;31408;45.468;9.124;2022-08-05T03:11:24;4.22;;;2.83;;
45694;SDS011;31408;45.468;9.124;2022-08-05T03:13:51;6.13;;;2.70;;
45694;SDS011;31408;45.468;9.124;2022-08-05T03:16:17;5.22;;;3.25;;
45694;SDS011;31408;45.468;9.124;2022-08-05T03:18:43;3.67;;;2.92;;
45694;SDS011;31408;45.468;9.124;2022-08-05T03:21:08;8.00;;;2.83;;
45694;SDS011;31408;45.468;9.124;2022-08-05T03:23:41;5.00;;;2.28;;
45694;SDS011;31408;45.468;9.124;2022-08-05T03:28:32;4.82;;;2.15;;
45694;SDS011;31408;45.468;9.124;2022-08-05T03:30:59;5.22;;;3.08;;
45694;SDS011;31408;45.468;9.124;2022-08-05T03:33:26;5.25;;;2.88;;
45694;SDS011;31408;45.468;9.124;2022-08-05T03:35:51;7.15;;;2.90;;
45694;SDS011;31408;45.468;9.124;2022-08-05T03:38:17;7.93;;;3.00;;
45694;SDS011;31408;45.468;9.124;2022-08-05T03:40:43;3.72;;;2.60;;
45694;SDS011;31408;45.468;9.124;2022-08-05T03:43:10;2.95;;;2.65;;
45694;SDS011;31408;45.468;9.124;2022-08-05T03:45:35;5.57;;;2.40;;
45694;SDS011;31408;45.468;9.124;2022-08-05T03:48:01;5.00;;;2.47;;
45694;SDS011;31408;45.468;9.124;2022-08-05T03:50:27;6.68;;;3.17;;
45694;SDS011;31408;45.468;9.124;2022-08-05T03:53:06;4.97;;;2.70;;
45694;SDS011;31408;45.468;9.124;2022-08-05T03:55:36;8.52;;;3.20;;
45694;SDS011;31408;45.468;9.124;2022-08-05T03:58:04;6.05;;;2.75;;
45694;SDS011;31408;45.468;9.124;2022-08-05T04:00:34;4.32;;;2.47;;
45694;SDS011;31408;45.468;9.124;2022-08-05T04:03:01;5.35;;;3.05;;
45694;SDS011;31408;45.468;9.124;2022-08-05T04:05:31;4.47;;;2.70;;
45694;SDS011;31408;45.468;9.124;2022-08-05T04:07:58;5.80;;;2.88;;
45694;SDS011;31408;45.468;9.124;2022-08-05T04:10:28;4.60;;;2.45;;
45694;SDS011;31408;45.468;9.124;2022-08-05T04:12:55;5.30;;;2.90;;
45694;SDS011;31408;45.468;9.124;2022-08-05T04:15:21;6.80;;;2.90;;
45694;SDS011;31408;45.468;9.124;2022-08-05T04:17:46;9.18;;;2.97;;
45694;SDS011;31408;45.468;9.124;2022-08-05T04:20:16;9.32;;;3.63;;
45694;SDS011;31408;45.468;9.124;2022-08-05T04:22:43;5.28;;;2.80;;
45694;SDS011;31408;45.468;9.124;2022-08-05T04:25:08;4.47;;;2.72;;
45694;SDS011;31408;45.468;9.124;2022-08-05T04:27:34;6.22;;;2.85;;
45694;SDS011;31408;45.468;9.124;2022-08-05T04:29:59;4.60;;;2.50;;
45694;SDS011;31408;45.468;9.124;2022-08-05T04:32:25;6.45;;;3.20;;
45694;SDS011;31408;45.468;9.124;2022-08-05T04:34:50;3.75;;;2.50;;
45694;SDS011;31408;45.468;9.124;2022-08-05T04:37:16;6.07;;;2.85;;
45694;SDS011;31408;45.468;9.124;2022-08-05T04:39:42;4.57;;;2.65;;
45694;SDS011;31408;45.468;9.124;2022-08-05T04:42:08;8.43;;;2.88;;
45694;SDS011;31408;45.468;9.124;2022-08-05T04:44:33;7.97;;;3.05;;
45694;SDS011;31408;45.468;9.124;2022-08-05T04:46:59;9.15;;;2.95;;
45694;SDS011;31408;45.468;9.124;2022-08-05T04:49:25;3.20;;;2.33;;
45694;SDS011;31408;45.468;9.124;2022-08-05T04:51:51;5.22;;;3.03;;
45694;SDS011;31408;45.468;9.124;2022-08-05T04:54:17;3.78;;;2.67;;
45694;SDS011;31408;45.468;9.124;2022-08-05T04:56:44;5.03;;;3.17;;
45694;SDS011;31408;45.468;9.124;2022-08-05T04:59:19;6.75;;;2.90;;
45694;SDS011;31408;45.468;9.124;2022-08-05T05:01:46;10.57;;;3.58;;
45694;SDS011;31408;45.468;9.124;2022-08-05T05:04:16;5.88;;;2.55;;
45694;SDS011;31408;45.468;9.124;2022-08-05T05:06:42;5.97;;;3.05;;
45694;SDS011;31408;45.468;9.124;2022-08-05T05:09:08;7.60;;;2.90;;
45694;SDS011;31408;45.468;9.124;2022-08-05T05:11:35;4.13;;;2.78;;
45694;SDS011;31408;45.468;9.124;2022-08-05T05:14:00;6.68;;;2.50;;
45694;SDS011;31408;45.468;9.124;2022-08-05T05:16:27;5.82;;;2.90;;
45694;SDS011;31408;45.468;9.124;2022-08-05T05:18:53;4.57;;;2.60;;
45694;SDS011;31408;45.468;9.124;2022-08-05T05:21:19;5.15;;;3.17;;
45694;SDS011;31408;45.468;9.124;2022-08-05T05:23:44;3.97;;;2.85;;
45694;SDS011;31408;45.468;9.124;2022-08-05T05:26:10;4.18;;;2.50;;
45694;SDS011;31408;45.468;9.124;2022-08-05T05:28:35;4.32;;;2.85;;
45694;SDS011;31408;45.468;9.124;2022-08-05T05:31:01;3.10;;;2.22;;
45694;SDS011;31408;45.468;9.124;2022-08-05T05:33:26;5.47;;;2.60;;
45694;SDS011;31408;45.468;9.124;2022-08-05T05:35:51;3.20;;;2.28;;
45694;SDS011;31408;45.468;9.124;2022-08-05T05:38:17;4.85;;;3.25;;
45694;SDS011;31408;45.468;9.124;2022-08-05T05:40:42;4.40;;;2.45;;
45694;SDS011;31408;45.468;9.124;2022-08-05T05:43:08;7.22;;;3.20;;
45694;SDS011;31408;45.468;9.124;2022-08-05T05:45:34;7.68;;;3.40;;
45694;SDS011;31408;45.468;9.124;2022-08-05T05:47:59;6.55;;;3.05;;
45694;SDS011;31408;45.468;9.124;2022-08-05T05:50:25;5.10;;;2.80;;
45694;SDS011;31408;45.468;9.124;2022-08-05T05:52:50;5.68;;;3.15;;
45694;SDS011;31408;45.468;9.124;2022-08-05T05:55:16;10.27;;;3.28;;
45694;SDS011;31408;45.468;9.124;2022-08-05T05:57:43;3.60;;;2.28;;
45694;SDS011;31408;45.468;9.124;2022-08-05T06:00:10;4.75;;;2.60;;
45694;SDS011;31408;45.468;9.124;2022-08-05T06:02:40;5.35;;;3.30;;
45694;SDS011;31408;45.468;9.124;2022-08-05T06:05:07;11.50;;;3.00;;
45694;SDS011;31408;45.468;9.124;2022-08-05T06:07:32;8.05;;;3.05;;
45694;SDS011;31408;45.468;9.124;2022-08-05T06:09:58;8.82;;;3.58;;
45694;SDS011;31408;45.468;9.124;2022-08-05T06:12:23;4.97;;;2.70;;
45694;SDS011;31408;45.468;9.124;2022-08-05T06:14:49;4.80;;;2.72;;
45694;SDS011;31408;45.468;9.124;2022-08-05T06:17:14;5.43;;;3.28;;
45694;SDS011;31408;45.468;9.124;2022-08-05T06:19:42;7.18;;;3.17;;
45694;SDS011;31408;45.468;9.124;2022-08-05T06:22:08;8.63;;;4.20;;
45694;SDS011;31408;45.468;9.124;2022-08-05T06:24:34;11.70;;;4.03;;
45694;SDS011;31408;45.468;9.124;2022-08-05T06:26:59;9.13;;;3.10;;
45694;SDS011;31408;45.468;9.124;2022-08-05T06:29:25;11.05;;;3.78;;
45694;SDS011;31408;45.468;9.124;2022-08-05T06:31:51;11.27;;;4.40;;
45694;SDS011;31408;45.468;9.124;2022-08-05T06:34:16;9.70;;;3.60;;
45694;SDS011;31408;45.468;9.124;2022-08-05T06:36:42;10.65;;;4.25;;
45694;SDS011;31408;45.468;9.124;2022-08-05T06:39:08;12.00;;;3.90;;
45694;SDS011;31408;45.468;9.124;2022-08-05T06:41:33;5.10;;;3.58;;
45694;SDS011;31408;45.468;9.124;2022-08-05T06:43:58;8.48;;;4.80;;
45694;SDS011;31408;45.468;9.124;2022-08-05T06:46:24;8.73;;;4.05;;
45694;SDS011;31408;45.468;9.124;2022-08-05T06:48:50;6.75;;;3.38;;
45694;SDS011;31408;45.468;9.124;2022-08-05T06:51:15;10.57;;;3.97;;
45694;SDS011;31408;45.468;9.124;2022-08-05T06:53:40;6.75;;;3.88;;
45694;SDS011;31408;45.468;9.124;2022-08-05T06:56:08;7.63;;;3.92;;
45694;SDS011;31408;45.468;9.124;2022-08-05T06:58:34;8.38;;;3.08;;
45694;SDS011;31408;45.468;9.124;2022-08-05T07:01:00;8.05;;;4.53;;
45694;SDS011;31408;45.468;9.124;2022-08-05T07:03:26;10.65;;;3.63;;
45694;SDS011;31408;45.468;9.124;2022-08-05T07:05:53;6.22;;;3.47;;
45694;SDS011;31408;45.468;9.124;2022-08-05T07:08:19;8.57;;;3.72;;
45694;SDS011;31408;45.468;9.124;2022-08-05T07:10:46;8.57;;;3.63;;
45694;SDS011;31408;45.468;9.124;2022-08-05T07:13:11;12.45;;;3.75;;
45694;SDS011;31408;45.468;9.124;2022-08-05T07:15:55;10.57;;;3.60;;
45694;SDS011;31408;45.468;9.124;2022-08-05T07:18:39;11.23;;;4.03;;
45694;SDS011;31408;45.468;9.124;2022-08-05T07:21:05;5.90;;;3.40;;
45694;SDS011;31408;45.468;9.124;2022-08-05T07:23:31;6.25;;;3.17;;
45694;SDS011;31408;45.468;9.124;2022-08-05T07:25:57;9.18;;;3.72;;
45694;SDS011;31408;45.468;9.124;2022-08-05T07:28:22;8.82;;;4.10;;
45694;SDS011;31408;45.468;9.124;2022-08-05T07:30:49;8.95;;;3.40;;
45694;SDS011;31408;45.468;9.124;2022-08-05T07:33:14;12.38;;;3.85;;
45694;SDS011;31408;45.468;9.124;2022-08-05T07:35:40;6.30;;;3.25;;
45694;SDS011;31408;45.468;9.124;2022-08-05T07:38:05;9.77;;;3.08;;
45694;SDS011;31408;45.468;9.124;2022-08-05T07:40:30;5.38;;;2.78;;
45694;SDS011;31408;45.468;9.124;2022-08-05T07:42:56;8.27;;;2.95;;
45694;SDS011;31408;45.468;9.124;2022-08-05T07:45:21;8.25;;;3.33;;
45694;SDS011;31408;45.468;9.124;2022-08-05T07:47:47;10.15;;;3.65;;
45694;SDS011;31408;45.468;9.124;2022-08-05T07:50:12;8.70;;;3.42;;
45694;SDS011;31408;45.468;9.124;2022-08-05T07:52:38;10.07;;;2.92;;
45694;SDS011;31408;45.468;9.124;2022-08-05T07:55:05;11.48;;;3.50;;
45694;SDS011;31408;45.468;9.124;2022-08-05T07:57:31;7.53;;;3.67;;
45694;SDS011;31408;45.468;9.124;2022-08-05T07:59:56;10.18;;;2.92;;
45694;SDS011;31408;45.468;9.124;2022-08-05T08:02:22;6.20;;;2.75;;
45694;SDS011;31408;45.468;9.124;2022-08-05T08:04:49;10.23;;;3.63;;
45694;SDS011;31408;45.468;9.124;2022-08-05T08:07:18;12.85;;;3.50;;
45694;SDS011;31408;45.468;9.124;2022-08-05T08:09:44;5.28;;;2.80;;
45694;SDS011;31408;45.468;9.124;2022-08-05T08:12:10;7.72;;;2.70;;
45694;SDS011;31408;45.468;9.124;2022-08-05T08:14:37;13.77;;;3.13;;
45694;SDS011;31408;45.468;9.124;2022-08-05T08:17:03;9.45;;;3.60;;
45694;SDS011;31408;45.468;9.124;2022-08-05T08:19:28;6.32;;;3.72;;
45694;SDS011;31408;45.468;9.124;2022-08-05T08:21:54;6.03;;;2.70;;
45694;SDS011;31408;45.468;9.124;2022-08-05T08:24:19;5.80;;;2.80;;
45694;SDS011;31408;45.468;9.124;2022-08-05T08:26:45;4.50;;;2.20;;
45694;SDS011;31408;45.468;9.124;2022-08-05T08:29:10;7.00;;;2.05;;
45694;SDS011;31408;45.468;9.124;2022-08-05T08:31:36;8.88;;;2.60;;
45694;SDS011;31408;45.468;9.124;2022-08-05T08:34:01;13.18;;;2.28;;
45694;SDS011;31408;45.468;9.124;2022-08-05T08:36:27;6.63;;;2.22;;
45694;SDS011;31408;45.468;9.124;2022-08-05T08:38:52;5.07;;;1.90;;
45694;SDS011;31408;45.468;9.124;2022-08-05T08:41:19;3.80;;;1.75;;
45694;SDS011;31408;45.468;9.124;2022-08-05T08:43:46;5.65;;;2.10;;
45694;SDS011;31408;45.468;9.124;2022-08-05T08:46:13;4.13;;;1.65;;
45694;SDS011;31408;45.468;9.124;2022-08-05T08:48:38;4.78;;;1.80;;
45694;SDS011;31408;45.468;9.124;2022-08-05T08:51:06;3.55;;;1.50;;
45694;SDS011;31408;45.468;9.124;2022-08-05T08:53:35;6.25;;;1.60;;
45694;SDS011;31408;45.468;9.124;2022-08-05T08:56:02;4.75;;;2.03;;
45694;SDS011;31408;45.468;9.124;2022-08-05T08:58:29;5.25;;;1.95;;
45694;SDS011;31408;45.468;9.124;2022-08-05T09:00:55;4.95;;;1.45;;
45694;SDS011;31408;45.468;9.124;2022-08-05T09:03:20;6.30;;;1.77;;
45694;SDS011;31408;45.468;9.124;2022-08-05T09:05:46;4.97;;;2.15;;
45694;SDS011;31408;45.468;9.124;2022-08-05T09:08:12;4.20;;;2.47;;
45694;SDS011;31408;45.468;9.124;2022-08-05T09:10:39;3.67;;;1.40;;
45694;SDS011;31408;45.468;9.124;2022-08-05T09:13:08;2.28;;;1.55;;
45694;SDS011;31408;45.468;9.124;2022-08-05T09:15:39;3.65;;;1.70;;
45694;SDS011;31408;45.468;9.124;2022-08-05T09:18:06;4.20;;;1.90;;
45694;SDS011;31408;45.468;9.124;2022-08-05T09:20:35;5.00;;;1.60;;
45694;SDS011;31408;45.468;9.124;2022-08-05T09:25:38;4.45;;;1.50;;
45694;SDS011;31408;45.468;9.124;2022-08-05T09:28:18;3.13;;;1.48;;
45694;SDS011;31408;45.468;9.124;2022-08-05T09:30:57;3.97;;;1.38;;
45694;SDS011;31408;45.468;9.124;2022-08-05T09:33:29;8.00;;;2.20;;
45694;SDS011;31408;45.468;9.124;2022-08-05T09:35:55;3.92;;;1.67;;
45694;SDS011;31408;45.468;9.124;2022-08-05T09:38:21;6.45;;;1.63;;
45694;SDS011;31408;45.468;9.124;2022-08-05T09:40:47;7.45;;;1.45;;
45694;SDS011;31408;45.468;9.124;2022-08-05T09:43:26;4.47;;;1.67;;
45694;SDS011;31408;45.468;9.124;2022-08-05T09:45:53;2.45;;;1.48;;
45694;SDS011;31408;45.468;9.124;2022-08-05T09:50:56;8.13;;;2.22;;
45694;SDS011;31408;45.468;9.124;2022-08-05T09:53:26;9.48;;;1.70;;
45694;SDS011;31408;45.468;9.124;2022-08-05T09:55:53;6.85;;;1.80;;
45694;SDS011;31408;45.468;9.124;2022-08-05T09:58:20;1.85;;;1.30;;
45694;SDS011;31408;45.468;9.124;2022-08-05T10:03:21;5.32;;;1.92;;
45694;SDS011;31408;45.468;9.124;2022-08-05T10:05:58;3.97;;;1.40;;
45694;SDS011;31408;45.468;9.124;2022-08-05T10:08:24;4.05;;;1.95;;
45694;SDS011;31408;45.468;9.124;2022-08-05T10:10:50;4.90;;;2.53;;
45694;SDS011;31408;45.468;9.124;2022-08-05T10:13:33;5.75;;;1.80;;
45694;SDS011;31408;45.468;9.124;2022-08-05T10:16:00;1.58;;;1.48;;
45694;SDS011;31408;45.468;9.124;2022-08-05T10:18:30;4.73;;;1.57;;
45694;SDS011;31408;45.468;9.124;2022-08-05T10:21:00;5.90;;;1.73;;
45694;SDS011;31408;45.468;9.124;2022-08-05T10:23:32;2.25;;;1.60;;
45694;SDS011;31408;45.468;9.124;2022-08-05T10:26:01;2.38;;;1.30;;
45694;SDS011;31408;45.468;9.124;2022-08-05T10:28:28;8.25;;;2.13;;
45694;SDS011;31408;45.468;9.124;2022-08-05T10:30:54;7.32;;;2.22;;
45694;SDS011;31408;45.468;9.124;2022-08-05T10:33:21;4.53;;;1.52;;
45694;SDS011;31408;45.468;9.124;2022-08-05T10:35:51;3.55;;;1.67;;
45694;SDS011;31408;45.468;9.124;2022-08-05T10:38:21;5.00;;;1.40;;
45694;SDS011;31408;45.468;9.124;2022-08-05T10:43:36;2.75;;;1.67;;
45694;SDS011;31408;45.468;9.124;2022-08-05T10:46:18;5.25;;;1.95;;
45694;SDS011;31408;45.468;9.124;2022-08-05T10:48:46;4.85;;;1.35;;
45694;SDS011;31408;45.468;9.124;2022-08-05T10:51:14;2.05;;;1.65;;
45694;SDS011;31408;45.468;9.124;2022-08-05T10:56:08;3.88;;;1.50;;
45694;SDS011;31408;45.468;9.124;2022-08-05T10:58:37;3.50;;;1.92;;
45694;SDS011;31408;45.468;9.124;2022-08-05T11:01:40;4.57;;;1.35;;
45694;SDS011;31408;45.468;9.124;2022-08-05T11:09:23;9.20;;;1.90;;
45694;SDS011;31408;45.468;9.124;2022-08-05T11:11:50;2.85;;;1.50;;
45694;SDS011;31408;45.468;9.124;2022-08-05T11:19:49;2.45;;;1.83;;
45694;SDS011;31408;45.468;9.124;2022-08-05T11:27:55;2.60;;;2.10;;
45694;SDS011;31408;45.468;9.124;2022-08-05T11:30:26;7.00;;;1.77;;
45694;SDS011;31408;45.468;9.124;2022-08-05T11:33:07;8.85;;;2.08;;
45694;SDS011;31408;45.468;9.124;2022-08-05T11:35:56;5.07;;;1.73;;
45694;SDS011;31408;45.468;9.124;2022-08-05T11:41:13;3.70;;;1.42;;
45694;SDS011;31408;45.468;9.124;2022-08-05T11:43:43;4.55;;;1.48;;
45694;SDS011;31408;45.468;9.124;2022-08-05T11:46:28;4.53;;;1.77;;
45694;SDS011;31408;45.468;9.124;2022-08-05T11:48:55;7.32;;;2.00;;
45694;SDS011;31408;45.468;9.124;2022-08-05T11:51:22;2.28;;;1.25;;
45694;SDS011;31408;45.468;9.124;2022-08-05T11:53:48;4.70;;;1.15;;
45694;SDS011;31408;45.468;9.124;2022-08-05T11:56:14;2.72;;;1.52;;
45694;SDS011;31408;45.468;9.124;2022-08-05T11:58:41;6.38;;;2.15;;
45694;SDS011;31408;45.468;9.124;2022-08-05T12:01:09;2.53;;;1.40;;
45694;SDS011;31408;45.468;9.124;2022-08-05T12:03:43;4.93;;;1.73;;
45694;SDS011;31408;45.468;9.124;2022-08-05T12:06:13;4.28;;;2.13;;
45694;SDS011;31408;45.468;9.124;2022-08-05T12:08:44;1.40;;;1.30;;
45694;SDS011;31408;45.468;9.124;2022-08-05T12:11:15;2.72;;;1.30;;
45694;SDS011;31408;45.468;9.124;2022-08-05T12:13:51;2.35;;;1.38;;
45694;SDS011;31408;45.468;9.124;2022-08-05T12:16:18;3.70;;;1.65;;
45694;SDS011;31408;45.468;9.124;2022-08-05T12:18:44;2.28;;;1.40;;
45694;SDS011;31408;45.468;9.124;2022-08-05T12:21:14;2.42;;;1.40;;
45694;SDS011;31408;45.468;9.124;2022-08-05T12:24:00;1.73;;;1.50;;
45694;SDS011;31408;45.468;9.124;2022-08-05T12:29:06;1.40;;;1.30;;
45694;SDS011;31408;45.468;9.124;2022-08-05T12:31:34;2.58;;;1.48;;
45694;SDS011;31408;45.468;9.124;2022-08-05T12:34:00;5.53;;;1.60;;
45694;SDS011;31408;45.468;9.124;2022-08-05T12:36:26;2.53;;;1.75;;
45694;SDS011;31408;45.468;9.124;2022-08-05T12:38:52;2.35;;;1.50;;
45694;SDS011;31408;45.468;9.124;2022-08-05T12:41:18;3.67;;;1.75;;
45694;SDS011;31408;45.468;9.124;2022-08-05T12:43:56;6.15;;;2.20;;
45694;SDS011;31408;45.468;9.124;2022-08-05T12:46:24;5.22;;;1.60;;
45694;SDS011;31408;45.468;9.124;2022-08-05T12:51:27;5.13;;;1.77;;
45694;SDS011;31408;45.468;9.124;2022-08-05T12:54:00;2.40;;;1.90;;
45694;SDS011;31408;45.468;9.124;2022-08-05T12:56:27;2.72;;;1.83;;
45694;SDS011;31408;45.468;9.124;2022-08-05T13:02:07;7.88;;;1.90;;
45694;SDS011;31408;45.468;9.124;2022-08-05T13:04:34;2.40;;;1.50;;
45694;SDS011;31408;45.468;9.124;2022-08-05T13:07:02;4.03;;;2.03;;
45694;SDS011;31408;45.468;9.124;2022-08-05T13:09:28;4.47;;;2.40;;
45694;SDS011;31408;45.468;9.124;2022-08-05T13:12:00;4.97;;;2.17;;
45694;SDS011;31408;45.468;9.124;2022-08-05T13:14:27;5.20;;;2.10;;
45694;SDS011;31408;45.468;9.124;2022-08-05T13:16:56;5.18;;;1.83;;
45694;SDS011;31408;45.468;9.124;2022-08-05T13:19:23;3.90;;;2.15;;
45694;SDS011;31408;45.468;9.124;2022-08-05T13:21:50;3.30;;;2.20;;
45694;SDS011;31408;45.468;9.124;2022-08-05T13:24:16;5.30;;;2.50;;
45694;SDS011;31408;45.468;9.124;2022-08-05T13:26:43;2.90;;;1.40;;
45694;SDS011;31408;45.468;9.124;2022-08-05T13:29:09;3.50;;;1.70;;
45694;SDS011;31408;45.468;9.124;2022-08-05T13:31:35;3.55;;;1.73;;
45694;SDS011;31408;45.468;9.124;2022-08-05T13:34:00;1.35;;;1.25;;
45694;SDS011;31408;45.468;9.124;2022-08-05T13:36:26;1.50;;;1.40;;
45694;SDS011;31408;45.468;9.124;2022-08-05T13:38:51;2.80;;;1.88;;
45694;SDS011;31408;45.468;9.124;2022-08-05T13:41:17;1.83;;;1.50;;
45694;SDS011;31408;45.468;9.124;2022-08-05T13:43:42;2.97;;;1.45;;
45694;SDS011;31408;45.468;9.124;2022-08-05T13:46:09;3.38;;;1.58;;
45694;SDS011;31408;45.468;9.124;2022-08-05T13:48:35;3.10;;;1.52;;
45694;SDS011;31408;45.468;9.124;2022-08-05T13:51:08;2.03;;;1.80;;
45694;SDS011;31408;45.468;9.124;2022-08-05T13:53:35;6.03;;;1.70;;
45694;SDS011;31408;45.468;9.124;2022-08-05T13:56:01;1.40;;;1.30;;
45694;SDS011;31408;45.468;9.124;2022-08-05T13:58:27;1.25;;;1.13;;
45694;SDS011;31408;45.468;9.124;2022-08-05T14:00:53;1.45;;;1.35;;
45694;SDS011;31408;45.468;9.124;2022-08-05T14:03:18;1.85;;;1.52;;
45694;SDS011;31408;45.468;9.124;2022-08-05T14:05:44;1.73;;;1.63;;
45694;SDS011;31408;45.468;9.124;2022-08-05T14:08:09;4.25;;;1.88;;
45694;SDS011;31408;45.468;9.124;2022-08-05T14:10:35;2.33;;;2.10;;
45694;SDS011;31408;45.468;9.124;2022-08-05T14:13:01;1.85;;;1.48;;
45694;SDS011;31408;45.468;9.124;2022-08-05T14:15:27;2.83;;;1.90;;
45694;SDS011;31408;45.468;9.124;2022-08-05T14:17:52;4.25;;;2.35;;
45694;SDS011;31408;45.468;9.124;2022-08-05T14:20:18;2.63;;;1.73;;
45694;SDS011;31408;45.468;9.124;2022-08-05T14:22:43;4.88;;;2.45;;
45694;SDS011;31408;45.468;9.124;2022-08-05T14:25:09;1.80;;;1.70;;
45694;SDS011;31408;45.468;9.124;2022-08-05T14:27:35;3.53;;;2.00;;
45694;SDS011;31408;45.468;9.124;2022-08-05T14:30:01;1.70;;;1.60;;
45694;SDS011;31408;45.468;9.124;2022-08-05T14:32:27;2.40;;;2.08;;
45694;SDS011;31408;45.468;9.124;2022-08-05T14:34:52;2.80;;;1.83;;
45694;SDS011;31408;45.468;9.124;2022-08-05T14:37:17;2.92;;;2.13;;
45694;SDS011;31408;45.468;9.124;2022-08-05T14:39:46;3.35;;;2.03;;
45694;SDS011;31408;45.468;9.124;2022-08-05T14:42:11;3.95;;;1.98;;
45694;SDS011;31408;45.468;9.124;2022-08-05T14:44:37;3.65;;;1.73;;
45694;SDS011;31408;45.468;9.124;2022-08-05T14:47:02;5.15;;;1.77;;
45694;SDS011;31408;45.468;9.124;2022-08-05T14:49:31;3.60;;;2.63;;
45694;SDS011;31408;45.468;9.124;2022-08-05T14:51:56;4.68;;;2.08;;
45694;SDS011;31408;45.468;9.124;2022-08-05T14:54:22;2.35;;;2.00;;
45694;SDS011;31408;45.468;9.124;2022-08-05T14:56:47;3.80;;;2.05;;
45694;SDS011;31408;45.468;9.124;2022-08-05T14:59:13;2.13;;;1.92;;
45694;SDS011;31408;45.468;9.124;2022-08-05T15:01:44;2.15;;;1.85;;
45694;SDS011;31408;45.468;9.124;2022-08-05T15:04:10;4.13;;;2.40;;
45694;SDS011;31408;45.468;9.124;2022-08-05T15:06:36;4.75;;;1.75;;
45694;SDS011;31408;45.468;9.124;2022-08-05T15:09:02;2.47;;;1.98;;
45694;SDS011;31408;45.468;9.124;2022-08-05T15:11:29;3.17;;;2.00;;
45694;SDS011;31408;45.468;9.124;2022-08-05T15:13:55;5.35;;;2.75;;
45694;SDS011;31408;45.468;9.124;2022-08-05T15:16:21;5.45;;;1.90;;
45694;SDS011;31408;45.468;9.124;2022-08-05T15:18:46;2.67;;;1.50;;
45694;SDS011;31408;45.468;9.124;2022-08-05T15:21:11;1.42;;;1.33;;
45694;SDS011;31408;45.468;9.124;2022-08-05T15:23:37;5.57;;;1.60;;
45694;SDS011;31408;45.468;9.124;2022-08-05T15:26:05;1.75;;;1.65;;
45694;SDS011;31408;45.468;9.124;2022-08-05T15:28:30;3.22;;;1.77;;
45694;SDS011;31408;45.468;9.124;2022-08-05T15:30:56;2.65;;;1.55;;
45694;SDS011;31408;45.468;9.124;2022-08-05T15:33:21;1.65;;;1.40;;
45694;SDS011;31408;45.468;9.124;2022-08-05T15:35:50;2.65;;;1.70;;
45694;SDS011;31408;45.468;9.124;2022-08-05T15:38:15;1.58;;;1.48;;
45694;SDS011;31408;45.468;9.124;2022-08-05T15:40:41;2.88;;;1.63;;